Time;durP1;ratioP1;P1;durP2;ratioP2;P2;SDS_P1;SDS_P2;PMS_P1;PMS_P2;Temp;Humidity;BMP_temperature;BMP_pressure;BME280_temperature;BME280_humidity;BME280_pressure;Samples;Min_cycle;Max_cycle;Signal;HPM_P1;HPM_P2
2022/11/24 06:14:20;;;;;;;6.22;1.70;;;;;;;6.52;87.85;97560.19;6179097;23;20017;-64
2022/11/24 06:16:46;;;;;;;7.38;1.65;;;;;;;6.51;87.54;97569.78;6185266;23;20013;-66
2022/11/24 06:19:11;;;;;;;7.07;2.00;;;;;;;6.58;88.36;97586.69;6183526;23;20009;-65
2022/11/24 06:21:36;;;;;;;6.70;1.77;;;;;;;6.56;87.89;97587.72;6184980;23;20013;-66
2022/11/24 06:24:02;;;;;;;8.52;2.13;;;;;;;6.55;87.64;97586.03;6156944;23;19997;-65
2022/11/24 06:26:27;;;;;;;6.43;2.33;;;;;;;6.51;88.09;97581.97;6184955;23;20443;-66
2022/11/24 06:28:53;;;;;;;6.53;2.45;;;;;;;6.52;88.37;97597.50;6158131;23;20001;-66
2022/11/24 06:31:18;;;;;;;8.55;2.22;;;;;;;6.48;87.66;97598.63;6185010;23;20005;-66
2022/11/24 06:33:44;;;;;;;6.30;1.83;;;;;;;6.48;87.11;97592.56;6184065;23;20001;-65
2022/11/24 06:36:10;;;;;;;6.28;1.48;;;;;;;6.45;88.05;97593.59;6158987;23;20009;-65
2022/11/24 06:38:36;;;;;;;3.92;1.30;;;;;;;6.44;87.62;97589.31;6132650;23;20041;-65
2022/11/24 06:41:03;;;;;;;5.75;2.05;;;;;;;6.44;88.06;97594.53;6184434;23;20012;-65
2022/11/24 06:43:28;;;;;;;5.50;1.40;;;;;;;6.44;87.78;97594.53;6158361;23;20334;-65
2022/11/24 06:45:54;;;;;;;7.72;1.90;;;;;;;6.47;88.25;97603.91;6158902;23;20419;-64
2022/11/24 06:48:19;;;;;;;5.95;1.60;;;;;;;6.50;88.11;97611.53;6158507;23;20001;-66
2022/11/24 06:50:45;;;;;;;5.30;1.45;;;;;;;6.53;88.08;97612.19;6184722;23;20005;-66
2022/11/24 06:53:11;;;;;;;5.35;1.50;;;;;;;6.56;88.19;97613.78;6184773;23;20009;-64
2022/11/24 06:55:37;;;;;;;7.00;1.60;;;;;;;6.59;87.48;97613.59;6184521;23;20001;-64
2022/11/24 06:58:03;;;;;;;6.88;1.83;;;;;;;6.63;87.41;97609.84;6134205;23;20004;-63
2022/11/24 07:00:30;;;;;;;8.95;1.85;;;;;;;6.66;87.45;97610.50;6184666;23;20013;-64
2022/11/24 07:02:57;;;;;;;7.50;2.20;;;;;;;6.70;87.13;97607.69;6184526;23;20124;-64
2022/11/24 07:05:22;;;;;;;4.72;1.40;;;;;;;6.75;86.73;97614.31;6158652;23;19997;-65
2022/11/24 07:07:48;;;;;;;11.35;1.92;;;;;;;6.76;87.13;97617.75;6184631;23;20131;-64
2022/11/24 07:10:13;;;;;;;5.22;1.40;;;;;;;6.79;86.66;97625.38;6184082;23;20008;-66
2022/11/24 07:12:39;;;;;;;7.57;2.03;;;;;;;6.83;86.75;97627.69;6184414;23;20005;-65
2022/11/24 07:15:04;;;;;;;9.40;2.38;;;;;;;6.84;86.49;97625.91;6184163;23;20013;-65
2022/11/24 07:17:30;;;;;;;5.63;2.03;;;;;;;6.83;86.06;97635.50;6184759;23;20009;-65
2022/11/24 07:19:55;;;;;;;5.13;1.40;;;;;;;6.82;85.84;97630.41;6184500;23;20001;-64
2022/11/24 07:22:21;;;;;;;10.30;2.00;;;;;;;6.84;85.77;97634.56;6158394;23;20001;-64
2022/11/24 07:24:46;;;;;;;8.73;1.55;;;;;;;6.86;85.54;97635.31;6184534;23;20435;-65
2022/11/24 07:27:11;;;;;;;6.63;1.52;;;;;;;6.87;85.15;97636.16;6184028;23;20431;-64
2022/11/24 07:29:37;;;;;;;6.90;1.30;;;;;;;6.85;85.40;97641.47;6184350;23;20001;-66
2022/11/24 07:32:02;;;;;;;5.40;1.60;;;;;;;6.88;85.84;97635.22;6133515;23;20005;-65
2022/11/24 07:34:27;;;;;;;6.07;1.50;;;;;;;6.92;85.82;97638.47;6184099;23;20381;-65
2022/11/24 07:36:53;;;;;;;7.57;2.08;;;;;;;6.92;85.63;97643.69;6184738;23;20423;-65
2022/11/24 07:39:18;;;;;;;6.88;1.60;;;;;;;6.97;84.67;97639.84;6184366;23;20001;-65
2022/11/24 07:41:43;;;;;;;8.65;1.45;;;;;;;7.06;84.13;97646.28;6184392;23;20012;-65
2022/11/24 07:44:09;;;;;;;7.18;1.65;;;;;;;7.10;84.05;97647.75;6157938;23;20015;-65
2022/11/24 07:46:34;;;;;;;6.43;1.35;;;;;;;7.17;84.63;97643.81;6184321;23;20011;-65
2022/11/24 07:49:00;;;;;;;6.57;1.20;;;;;;;7.24;84.41;97652.94;6184278;23;20330;-63
2022/11/24 07:51:25;;;;;;;4.85;1.30;;;;;;;7.31;84.26;97651.59;6184387;23;20007;-64
2022/11/24 07:53:50;;;;;;;6.00;1.23;;;;;;;7.39;83.59;97656.31;6184071;23;20055;-64
2022/11/24 07:56:16;;;;;;;6.20;1.30;;;;;;;7.46;83.64;97656.75;6158004;23;20019;-64
2022/11/24 07:58:41;;;;;;;3.85;1.00;;;;;;;7.52;84.00;97661.59;6184091;23;19997;-64
2022/11/24 08:01:11;;;;;;;8.40;1.83;;;;;;;7.57;83.29;97662.13;6184516;23;20001;-64
2022/11/24 08:03:36;;;;;;;5.57;1.48;;;;;;;7.63;82.43;97669.56;6133191;23;20434;-64
2022/11/24 08:06:02;;;;;;;7.30;1.30;;;;;;;7.57;82.77;97660.38;6184200;23;20011;-64
2022/11/24 08:08:31;;;;;;;9.23;1.40;;;;;;;7.56;83.57;97657.84;6157864;23;20005;-64
2022/11/24 08:10:57;;;;;;;4.05;1.23;;;;;;;7.59;82.99;97658.47;6135072;23;20001;-65
2022/11/24 08:13:22;;;;;;;5.78;1.27;;;;;;;7.56;82.95;97660.44;6183579;23;20001;-64
2022/11/24 08:15:48;;;;;;;6.38;1.17;;;;;;;7.61;83.06;97666.22;6184593;23;20005;-64
2022/11/24 08:18:13;;;;;;;5.32;1.33;;;;;;;7.63;82.40;97663.50;6183899;23;20001;-64
2022/11/24 08:20:38;;;;;;;7.50;1.90;;;;;;;7.69;82.47;97668.31;6184036;23;20001;-64
2022/11/24 08:23:04;;;;;;;7.28;1.52;;;;;;;7.73;82.25;97667.19;6183488;23;20468;-63
2022/11/24 08:25:31;;;;;;;6.75;1.80;;;;;;;7.72;81.77;97663.75;6184348;23;20435;-65
2022/11/24 08:28:00;;;;;;;7.72;1.50;;;;;;;7.75;81.88;97658.31;6183974;23;20028;-64
2022/11/24 08:30:25;;;;;;;8.80;1.73;;;;;;;7.76;81.69;97665.19;6133791;23;20377;-64
2022/11/24 08:32:51;;;;;;;6.03;1.27;;;;;;;7.78;81.83;97657.28;6158464;23;20005;-65
2022/11/24 08:35:16;;;;;;;7.82;1.58;;;;;;;7.89;81.23;97656.56;6182998;23;20000;-64
2022/11/24 08:37:41;;;;;;;5.60;1.20;;;;;;;7.92;80.74;97659.81;6184008;23;20001;-65
2022/11/24 08:40:07;;;;;;;5.28;1.33;;;;;;;8.00;80.93;97661.91;6183771;23;20346;-65
2022/11/24 08:42:33;;;;;;;6.18;1.42;;;;;;;8.08;81.51;97667.44;6183598;23;20005;-65
2022/11/24 08:44:58;;;;;;;6.25;2.25;;;;;;;8.11;81.32;97666.41;6183466;23;20331;-65
2022/11/24 08:47:23;;;;;;;5.22;1.40;;;;;;;8.19;81.58;97677.19;6182630;23;20132;-64
2022/11/24 08:49:49;;;;;;;7.32;1.70;;;;;;;8.24;81.61;97675.09;6156807;23;20453;-65
2022/11/24 08:52:15;;;;;;;5.93;1.50;;;;;;;8.27;81.00;97675.72;6157596;23;20005;-65
2022/11/24 08:54:43;;;;;;;7.13;1.50;;;;;;;8.31;80.24;97668.53;6132604;23;20076;-65
2022/11/24 08:57:08;;;;;;;3.85;1.20;;;;;;;8.32;79.68;97678.84;6183809;23;20016;-66
2022/11/24 08:59:34;;;;;;;7.35;1.77;;;;;;;8.30;80.53;97675.53;6157525;23;20001;-65
2022/11/24 09:01:59;;;;;;;8.50;1.75;;;;;;;8.31;80.31;97677.19;6183959;23;20338;-64
2022/11/24 09:04:24;;;;;;;8.38;1.75;;;;;;;8.31;80.57;97681.59;6182323;23;20054;-65
2022/11/24 09:06:50;;;;;;;8.27;1.63;;;;;;;8.30;80.39;97679.94;6182514;23;20020;-65
2022/11/24 09:09:15;;;;;;;5.97;1.50;;;;;;;8.36;80.54;97691.72;6183714;23;20024;-66
2022/11/24 09:11:40;;;;;;;4.60;1.52;;;;;;;8.38;80.18;97692.50;6183739;23;20009;-66
2022/11/24 09:14:06;;;;;;;9.25;2.90;;;;;;;8.43;79.65;97701.72;6156958;23;20009;-65
2022/11/24 09:16:31;;;;;;;7.70;1.75;;;;;;;8.42;79.42;97691.34;6157433;23;20058;-64
2022/11/24 09:18:58;;;;;;;5.88;1.50;;;;;;;8.37;80.42;97703.88;6183601;23;20001;-64
2022/11/24 09:21:24;;;;;;;6.80;1.80;;;;;;;8.29;80.45;97699.13;6133529;23;20001;-66
2022/11/24 09:23:50;;;;;;;7.45;1.42;;;;;;;8.26;80.82;97700.19;6183013;23;20005;-65
2022/11/24 09:26:20;;;;;;;7.80;1.50;;;;;;;8.13;81.66;97699.34;6157079;23;20072;-64
2022/11/24 09:28:46;;;;;;;6.15;1.60;;;;;;;8.05;81.48;97706.81;6133654;23;20032;-66
2022/11/24 09:31:13;;;;;;;7.53;1.60;;;;;;;8.00;82.36;97703.69;6157496;23;20001;-65
2022/11/24 09:33:39;;;;;;;7.47;1.80;;;;;;;8.00;82.66;97721.97;6132685;23;20052;-65
2022/11/24 09:36:05;;;;;;;5.40;1.40;;;;;;;8.00;82.38;97709.75;6185478;23;20005;-66
2022/11/24 09:38:30;;;;;;;4.25;1.50;;;;;;;7.96;82.87;97716.13;6185741;23;20084;-67
2022/11/24 09:40:56;;;;;;;7.20;1.67;;;;;;;7.88;83.33;97725.38;6184611;23;20005;-65
2022/11/24 09:43:28;;;;;;;5.55;1.65;;;;;;;7.85;83.31;97724.66;6158557;23;21731;-64
2022/11/24 09:46:41;;;;;;;4.30;1.40;;;;;;;7.79;84.12;97721.59;6135116;23;20378;-63
2022/11/24 09:49:08;;;;;;;6.15;1.33;;;;;;;7.70;84.92;97724.81;6094110;23;20028;-65
2022/11/24 09:51:34;;;;;;;6.38;1.50;;;;;;;7.69;84.79;97726.59;6134898;23;20056;-65
2022/11/24 09:54:04;;;;;;;5.82;1.40;;;;;;;7.66;85.45;97729.38;6158470;23;20005;-66
2022/11/24 09:56:32;;;;;;;7.28;1.70;;;;;;;7.67;85.97;97728.44;6158613;23;20024;-64
2022/11/24 09:59:19;;;;;;;5.43;1.90;;;;;;;7.74;86.85;97724.53;6135082;23;20001;-64
2022/11/24 10:01:45;;;;;;;6.95;1.63;;;;;;;7.76;85.04;97722.63;6185489;23;20001;-66
2022/11/24 10:04:19;;;;;;;5.55;1.30;;;;;;;7.85;84.76;97726.44;6134717;23;20008;-66
2022/11/24 10:07:06;;;;;;;5.13;1.23;;;;;;;7.87;84.66;97718.50;6135649;23;20048;-65
2022/11/24 10:09:55;;;;;;;4.40;1.17;;;;;;;7.84;84.63;97720.38;6157801;23;20449;-64
2022/11/24 10:12:58;;;;;;;3.30;0.80;;;;;;;7.83;84.68;97730.91;6135989;23;20011;-65
2022/11/24 10:15:41;;;;;;;2.20;0.80;;;;;;;7.84;84.04;97735.19;6185038;23;20670;-64
2022/11/24 10:18:13;;;;;;;3.20;0.80;;;;;;;7.83;84.58;97736.97;6134136;23;20012;-64
2022/11/24 10:20:48;;;;;;;4.93;0.80;;;;;;;7.85;83.88;97742.09;6134728;23;20104;-64
2022/11/24 10:23:32;;;;;;;5.38;1.98;;;;;;;7.88;84.80;97741.91;6184761;23;20012;-63
2022/11/24 10:26:00;;;;;;;3.72;1.13;;;;;;;7.85;85.50;97737.72;6185089;23;20020;-64
2022/11/24 10:28:31;;;;;;;5.10;0.95;;;;;;;7.82;85.79;97735.31;6134309;23;20450;-64
2022/11/24 10:31:14;;;;;;;5.10;1.33;;;;;;;7.75;85.64;97733.19;6135233;23;20416;-64
2022/11/24 10:33:40;;;;;;;3.20;0.70;;;;;;;7.74;85.94;97732.38;6135532;23;20012;-63
2022/11/24 10:36:07;;;;;;;4.97;0.90;;;;;;;7.80;85.93;97739.78;6158914;23;20005;-64
2022/11/24 10:39:00;;;;;;;5.72;1.08;;;;;;;7.79;85.76;97738.09;6158832;23;20430;-64
2022/11/24 10:41:41;;;;;;;5.68;1.10;;;;;;;7.81;85.97;97741.47;6136715;23;20060;-64
2022/11/24 10:44:11;;;;;;;1.80;0.73;;;;;;;7.87;85.89;97742.00;6158308;23;20320;-65
2022/11/24 10:46:36;;;;;;;3.22;0.80;;;;;;;7.87;85.24;97739.38;6184759;23;20450;-64
2022/11/24 10:49:03;;;;;;;3.40;0.90;;;;;;;7.88;84.65;97744.53;6184945;23;20001;-65
2022/11/24 10:51:50;;;;;;;2.38;1.00;;;;;;;7.88;85.30;97743.66;6158663;23;20020;-64
2022/11/24 10:54:16;;;;;;;4.63;1.00;;;;;;;7.87;85.31;97745.44;6184432;23;20001;-65
2022/11/24 10:56:42;;;;;;;5.10;1.10;;;;;;;7.85;86.11;97737.72;6158691;23;20028;-65
2022/11/24 10:59:23;;;;;;;3.60;0.98;;;;;;;7.93;85.31;97744.22;6184729;23;20443;-64
2022/11/24 11:01:48;;;;;;;2.80;1.00;;;;;;;7.98;86.01;97736.91;6185000;23;20009;-64
2022/11/24 11:04:23;;;;;;;2.80;0.98;;;;;;;8.01;85.71;97741.94;6157999;23;20028;-64
2022/11/24 11:06:49;;;;;;;6.18;1.10;;;;;;;8.11;85.38;97743.00;6135052;23;20024;-65
2022/11/24 11:09:21;;;;;;;4.05;1.20;;;;;;;8.19;85.52;97745.09;6184440;23;20008;-65
2022/11/24 11:11:47;;;;;;;3.70;1.27;;;;;;;8.23;85.79;97747.44;6133997;23;20005;-65
2022/11/24 11:14:29;;;;;;;4.70;1.40;;;;;;;8.27;86.06;97754.13;6184056;23;20063;-65
2022/11/24 11:16:54;;;;;;;3.55;1.17;;;;;;;8.39;84.35;97754.25;6158330;23;20040;-66
2022/11/24 11:19:39;;;;;;;4.10;1.30;;;;;;;8.40;84.71;97748.13;6158420;23;20354;-64
2022/11/24 11:22:12;;;;;;;6.47;1.00;;;;;;;8.49;84.97;97753.53;6133731;23;20435;-64
2022/11/24 11:24:38;;;;;;;4.65;1.35;;;;;;;8.61;84.45;97757.13;6157975;23;20215;-64
2022/11/24 11:27:20;;;;;;;5.82;1.27;;;;;;;8.74;84.61;97751.88;6157602;23;20001;-67
2022/11/24 11:29:46;;;;;;;2.28;1.00;;;;;;;8.85;82.64;97743.31;6160156;23;20076;-65
2022/11/24 11:32:22;;;;;;;3.38;0.90;;;;;;;8.86;82.93;97742.38;6157053;23;20038;-65
2022/11/24 11:34:48;;;;;;;4.20;1.40;;;;;;;8.91;83.10;97742.88;6184281;23;20001;-65
2022/11/24 11:37:13;;;;;;;4.45;1.13;;;;;;;8.94;83.23;97738.25;6133340;23;20005;-66
2022/11/24 11:39:44;;;;;;;5.18;1.40;;;;;;;8.97;83.17;97742.47;6133594;23;20423;-66
2022/11/24 11:42:33;;;;;;;3.23;1.03;;;;;;;8.96;83.22;97753.88;6133541;23;20009;-65
2022/11/24 11:45:11;;;;;;;2.88;0.90;;;;;;;9.13;82.41;97750.09;6159599;23;20246;-66
2022/11/24 11:47:42;;;;;;;3.83;1.10;;;;;;;9.24;80.93;97751.00;6133688;23;20005;-65
2022/11/24 11:50:18;;;;;;;1.93;0.97;;;;;;;9.74;80.73;97751.81;6184513;23;20025;-65
2022/11/24 11:53:09;;;;;;;3.92;1.30;;;;;;;10.17;79.09;97756.50;6158039;23;20005;-65
2022/11/24 11:55:36;;;;;;;3.53;1.15;;;;;;;10.42;78.11;97749.47;6158628;23;20048;-65
2022/11/24 11:58:28;;;;;;;3.58;1.17;;;;;;;10.52;76.96;97755.69;6155352;23;20052;-66
2022/11/24 12:01:02;;;;;;;;;;;;;;;10.85;74.90;97762.78;6158655;23;20048;-59
2022/11/24 12:03:37;;;;;;;5.25;1.50;;;;;;;12.71;71.34;97763.66;6183836;23;19904;-63
2022/11/24 12:06:30;;;;;;;4.35;1.20;;;;;;;14.47;65.28;97753.47;6134039;23;20001;-62
2022/11/24 12:09:31;;;;;;;2.65;1.15;;;;;;;14.47;61.04;97759.56;6134464;23;20327;-64
2022/11/24 12:12:17;;;;;;;4.40;1.40;;;;;;;13.84;62.41;97760.97;6036075;23;20009;-66
2022/11/24 12:14:54;;;;;;;5.70;1.42;;;;;;;13.13;63.94;97756.53;6157236;23;20092;-66
2022/11/24 12:17:33;;;;;;;3.92;1.15;;;;;;;12.70;66.27;97764.66;6159735;23;20485;-65
2022/11/24 12:20:20;;;;;;;5.35;1.48;;;;;;;12.24;66.50;97778.97;6133270;23;20029;-66
2022/11/24 12:22:58;;;;;;;3.85;1.30;;;;;;;11.80;68.52;97764.97;6184033;23;20001;-65
2022/11/24 12:25:44;;;;;;;3.10;1.00;;;;;;;11.38;68.57;97773.53;6135057;23;20316;-66
2022/11/24 12:28:16;;;;;;;6.15;1.30;;;;;;;11.03;70.77;97771.03;6157335;23;20427;-65
2022/11/24 12:30:55;;;;;;;2.72;1.00;;;;;;;11.01;71.05;97772.09;6157731;23;20008;-66
2022/11/24 12:34:15;;;;;;;4.47;1.25;;;;;;;11.01;70.81;97786.06;6134835;23;20015;-66
2022/11/24 12:36:46;;;;;;;6.30;1.15;;;;;;;11.56;69.86;97781.75;6045873;23;20365;-66
2022/11/24 12:39:34;;;;;;;2.85;1.20;;;;;;;11.56;68.03;97779.13;6063841;23;20436;-66
2022/11/24 12:42:07;;;;;;;5.65;1.45;;;;;;;11.55;68.52;97787.13;6039859;23;20021;-65
2022/11/24 12:45:24;;;;;;;5.13;1.20;;;;;;;12.14;67.71;97783.31;6063490;23;20011;-65
2022/11/24 12:48:11;;;;;;;4.65;1.10;;;;;;;12.58;65.45;97782.28;6006772;23;20064;-65
2022/11/24 12:50:37;;;;;;;4.63;1.10;;;;;;;12.43;64.02;97789.66;6059853;23;20402;-66
2022/11/24 12:53:33;;;;;;;5.57;1.13;;;;;;;12.10;64.65;97799.31;6039256;23;20007;-66
2022/11/24 12:56:06;;;;;;;8.23;1.50;;;;;;;11.85;65.61;97802.28;6034912;23;20007;-65
2022/11/24 12:58:44;;;;;;;18.33;6.22;;;;;;;11.69;65.03;97801.78;6035029;23;20078;-66
2022/11/24 13:01:58;;;;;;;18.25;5.53;;;;;;;11.59;65.57;97804.31;6011235;23;20098;-65
2022/11/24 13:04:35;;;;;;;15.77;4.78;;;;;;;11.44;66.59;97805.53;5984678;23;20467;-64
2022/11/24 13:07:19;;;;;;;7.30;1.98;;;;;;;11.31;67.68;97808.25;6034905;23;20092;-65
2022/11/24 13:10:22;;;;;;;5.88;1.70;;;;;;;11.27;68.15;97804.22;6036522;23;20007;-65
2022/11/24 13:12:54;;;;;;;4.68;1.40;;;;;;;11.11;67.03;97815.03;6098015;23;20010;-64
2022/11/24 13:15:19;;;;;;;7.18;1.42;;;;;;;11.06;66.87;97814.59;6098911;23;20013;-64
2022/11/24 13:17:45;;;;;;;7.40;1.60;;;;;;;11.04;67.08;97819.09;6099297;23;20002;-64
2022/11/24 13:20:19;;;;;;;8.50;1.95;;;;;;;10.94;67.30;97821.56;6099097;23;20028;-65
2022/11/24 13:22:52;;;;;;;6.68;1.50;;;;;;;10.85;66.66;97815.25;6122635;23;20006;-66
2022/11/24 13:25:20;;;;;;;6.50;1.25;;;;;;;10.67;67.78;97814.03;6075545;23;20009;-66
2022/11/24 13:27:47;;;;;;;5.15;1.30;;;;;;;10.58;68.81;97830.44;6075279;23;20524;-65
2022/11/24 13:30:34;;;;;;;6.53;1.80;;;;;;;10.50;69.08;97824.94;6123501;23;20081;-66
2022/11/24 13:33:11;;;;;;;5.95;1.92;;;;;;;10.37;69.48;97819.78;6169552;23;20005;-66
2022/11/24 13:35:41;;;;;;;5.20;1.20;;;;;;;10.21;69.04;97826.09;6185609;23;20024;-66
2022/11/24 13:38:41;;;;;;;7.30;2.17;;;;;;;10.18;69.78;97825.47;6134933;23;20001;-66
2022/11/24 13:41:07;;;;;;;6.68;1.20;;;;;;;10.04;70.06;97830.88;6185241;23;20016;-65
2022/11/24 13:43:32;;;;;;;7.28;1.90;;;;;;;9.88;69.86;97836.41;6159092;23;20036;-64
2022/11/24 13:45:57;;;;;;;5.22;1.40;;;;;;;9.89;70.86;97838.06;6159227;23;20001;-65
2022/11/24 13:48:23;;;;;;;5.38;1.38;;;;;;;9.91;70.87;97844.03;6158902;23;20001;-64
2022/11/24 13:50:48;;;;;;;5.78;1.35;;;;;;;9.91;70.72;97847.50;6185345;23;20072;-65
2022/11/24 13:53:34;;;;;;;5.25;1.45;;;;;;;9.86;70.33;97846.16;6185000;23;20005;-65
2022/11/24 13:56:12;;;;;;;4.68;1.48;;;;;;;9.81;70.52;97848.28;6159317;23;20381;-64
2022/11/24 13:58:38;;;;;;;5.30;1.52;;;;;;;9.85;71.00;97854.97;6185825;23;20057;-64
2022/11/24 14:01:13;;;;;;;5.72;1.67;;;;;;;9.75;71.30;97860.84;6134784;23;20012;-66
2022/11/24 14:03:43;;;;;;;3.30;1.23;;;;;;;9.71;71.11;97859.38;6158760;23;20334;-64
2022/11/24 14:06:18;;;;;;;4.78;1.40;;;;;;;9.70;71.36;97847.25;6158905;23;20016;-64
2022/11/24 14:08:44;;;;;;;7.20;1.60;;;;;;;9.70;70.86;97860.34;6134683;23;20435;-66
2022/11/24 14:11:11;;;;;;;4.57;1.50;;;;;;;9.59;71.74;97865.47;6185120;23;20004;-65
2022/11/24 14:13:37;;;;;;;6.50;1.45;;;;;;;9.58;71.74;97866.44;6133860;23;20001;-66
2022/11/24 14:16:05;;;;;;;6.07;1.83;;;;;;;9.49;71.44;97869.69;6158475;23;20071;-66
2022/11/24 14:18:32;;;;;;;4.47;1.30;;;;;;;9.46;72.35;97870.75;6185176;23;20007;-68
2022/11/24 14:20:59;;;;;;;4.88;1.35;;;;;;;9.41;72.25;97877.22;6185086;23;20001;-66
2022/11/24 14:23:24;;;;;;;4.13;1.27;;;;;;;9.34;72.88;97871.59;6158554;23;20036;-66
2022/11/24 14:25:50;;;;;;;6.95;1.50;;;;;;;9.34;72.68;97870.75;6159095;23;20001;-65
2022/11/24 14:28:26;;;;;;;11.13;3.28;;;;;;;9.22;72.78;97870.66;6185279;23;20370;-66
2022/11/24 14:31:08;;;;;;;7.88;2.65;;;;;;;9.19;73.34;97873.47;6135148;23;19997;-66
2022/11/24 14:33:34;;;;;;;6.30;1.60;;;;;;;9.20;73.36;97875.16;6158298;23;20033;-66
2022/11/24 14:35:59;;;;;;;5.95;1.90;;;;;;;9.19;73.53;97880.50;6158994;23;20085;-67
2022/11/24 14:38:24;;;;;;;6.28;2.90;;;;;;;9.19;72.65;97877.88;6158477;23;20024;-66
2022/11/24 14:40:51;;;;;;;7.70;3.63;;;;;;;9.14;73.46;97888.63;6184751;23;20016;-66
2022/11/24 14:43:36;;;;;;;6.68;2.53;;;;;;;9.09;73.35;97882.91;6134190;23;20061;-66
2022/11/24 14:46:10;;;;;;;19.35;10.05;;;;;;;9.01;73.31;97882.56;6183528;23;20031;-66
2022/11/24 14:48:37;;;;;;;28.17;15.38;;;;;;;8.98;73.35;97888.00;6135051;23;20001;-65
2022/11/24 14:51:05;;;;;;;25.05;14.05;;;;;;;8.95;74.23;97891.66;6158719;23;20005;-66
2022/11/24 14:53:30;;;;;;;7.72;3.03;;;;;;;8.89;73.35;97889.47;6133821;23;20005;-65
2022/11/24 14:56:09;;;;;;;7.55;2.28;;;;;;;8.86;74.08;97896.66;6184781;23;20316;-66
2022/11/24 14:58:35;;;;;;;3.88;1.20;;;;;;;8.80;73.82;97903.13;6134637;23;20431;-66
2022/11/24 15:01:18;;;;;;;4.88;1.10;;;;;;;8.82;74.31;97901.28;6133361;23;20128;-66
2022/11/24 15:03:43;;;;;;;7.45;2.65;;;;;;;8.80;74.29;97903.97;6158354;23;20005;-66
2022/11/24 15:06:18;;;;;;;5.25;1.60;;;;;;;8.83;74.85;97907.34;6184975;23;20423;-66
2022/11/24 15:08:45;;;;;;;5.57;1.45;;;;;;;8.82;75.05;97910.91;6134807;23;20004;-66
2022/11/24 15:11:10;;;;;;;5.28;2.30;;;;;;;8.72;74.90;97911.50;6133743;23;20012;-66
2022/11/24 15:13:36;;;;;;;8.25;4.35;;;;;;;8.68;75.00;97914.41;6184204;23;20047;-66
2022/11/24 15:16:05;;;;;;;5.15;1.60;;;;;;;8.58;75.21;97913.34;6158585;23;20073;-66
2022/11/24 15:18:44;;;;;;;5.18;2.00;;;;;;;8.50;76.17;97913.84;6134020;23;20431;-72
2022/11/24 15:21:10;;;;;;;6.45;1.75;;;;;;;8.44;76.22;97916.84;6184654;23;20009;-67
2022/11/24 15:23:35;;;;;;;8.73;2.70;;;;;;;8.39;76.12;97926.75;6157909;23;20308;-64
2022/11/24 15:26:00;;;;;;;6.20;2.30;;;;;;;8.30;76.68;97926.38;6157749;23;20036;-64
2022/11/24 15:28:26;;;;;;;5.28;2.30;;;;;;;8.23;76.17;97925.09;6184465;23;19997;-65
2022/11/24 15:30:52;;;;;;;5.30;1.80;;;;;;;8.16;76.76;97928.19;6184428;23;20457;-64
2022/11/24 15:33:18;;;;;;;4.38;1.40;;;;;;;8.09;76.76;97923.34;6108987;23;20001;-66
2022/11/24 15:35:44;;;;;;;3.83;1.30;;;;;;;8.04;76.73;97935.84;6184412;23;20090;-65
2022/11/24 15:38:09;;;;;;;7.15;2.75;;;;;;;7.97;76.91;97933.72;6158003;23;20001;-65
2022/11/24 15:40:36;;;;;;;17.30;7.90;;;;;;;7.92;77.80;97933.19;6183782;23;20011;-65
2022/11/24 15:43:01;;;;;;;22.85;11.50;;;;;;;7.85;78.13;97941.38;6183742;23;20427;-65
2022/11/24 15:45:27;;;;;;;22.73;13.30;;;;;;;7.80;78.40;97939.97;6184010;23;20052;-66
2022/11/24 15:47:52;;;;;;;22.10;11.02;;;;;;;7.75;78.66;97945.50;6184326;23;20005;-66
2022/11/24 15:50:18;;;;;;;39.28;18.65;;;;;;;7.72;78.90;97950.91;6157999;23;20001;-66
2022/11/24 15:52:43;;;;;;;38.58;19.05;;;;;;;7.66;78.88;97946.03;6184295;23;20339;-66
2022/11/24 15:55:19;;;;;;;36.10;17.30;;;;;;;7.61;78.83;97948.09;6183901;23;20011;-64
2022/11/24 15:57:44;;;;;;;20.98;11.05;;;;;;;7.56;79.12;97947.53;6133800;23;20001;-65
2022/11/24 16:00:17;;;;;;;13.02;6.45;;;;;;;7.51;79.07;97950.44;6184348;23;19997;-65
2022/11/24 16:02:42;;;;;;;11.05;5.13;;;;;;;7.46;79.54;97951.63;6158360;23;20008;-65
2022/11/24 16:05:08;;;;;;;10.05;4.97;;;;;;;7.42;79.60;97958.78;6183680;23;20485;-64
2022/11/24 16:07:33;;;;;;;12.45;6.25;;;;;;;7.35;79.73;97955.72;6184114;23;20005;-63
2022/11/24 16:09:59;;;;;;;8.70;5.40;;;;;;;7.32;79.82;97962.88;6184207;23;19997;-64
2022/11/24 16:12:24;;;;;;;30.48;19.80;;;;;;;7.32;79.77;97966.31;6183598;23;20508;-64
2022/11/24 16:14:49;;;;;;;31.27;22.20;;;;;;;7.29;80.17;97970.88;6183404;23;20096;-66
2022/11/24 16:17:15;;;;;;;15.57;10.45;;;;;;;7.24;80.24;97965.13;6157914;23;20067;-66
2022/11/24 16:19:40;;;;;;;10.15;4.22;;;;;;;7.25;80.08;97966.78;6183961;23;20075;-66
2022/11/24 16:22:06;;;;;;;7.82;3.15;;;;;;;7.22;80.85;97967.78;6184088;23;20013;-65
2022/11/24 16:24:32;;;;;;;9.27;3.38;;;;;;;7.18;80.50;97974.13;6183625;23;20439;-65
2022/11/24 16:26:57;;;;;;;8.25;3.60;;;;;;;7.16;81.07;97976.00;6183963;23;20009;-65
2022/11/24 16:29:23;;;;;;;8.50;2.95;;;;;;;7.16;80.40;97977.75;6183572;23;20059;-64
2022/11/24 16:31:50;;;;;;;10.95;5.40;;;;;;;7.10;80.98;97977.19;6184002;23;20008;-64
2022/11/24 16:34:15;;;;;;;9.95;5.70;;;;;;;7.07;80.84;97979.13;6157300;23;20028;-64
2022/11/24 16:36:41;;;;;;;8.18;4.50;;;;;;;7.06;80.91;97980.91;6183978;23;20349;-65
2022/11/24 16:39:06;;;;;;;8.70;4.25;;;;;;;7.06;80.91;97977.47;6183878;23;20008;-65
2022/11/24 16:41:31;;;;;;;10.38;5.20;;;;;;;7.04;81.54;97981.91;6184145;23;20011;-64
2022/11/24 16:43:57;;;;;;;11.05;5.10;;;;;;;7.06;82.38;97982.69;6182771;23;20011;-66
2022/11/24 16:46:23;;;;;;;9.27;4.28;;;;;;;7.12;82.76;97988.38;6157449;23;20012;-66
2022/11/24 16:48:50;;;;;;;8.05;3.42;;;;;;;7.12;83.18;97992.75;6157660;23;19997;-65
2022/11/24 16:51:16;;;;;;;7.88;3.67;;;;;;;7.12;83.09;97995.34;6183732;23;20039;-65
2022/11/24 16:53:42;;;;;;;7.28;3.13;;;;;;;7.12;82.99;97990.13;6183577;23;20001;-65
2022/11/24 16:56:07;;;;;;;9.38;3.30;;;;;;;7.12;83.55;97997.94;6184048;23;20424;-66
2022/11/24 16:58:35;;;;;;;5.72;2.78;;;;;;;7.12;83.20;97997.94;6156790;23;20001;-66
2022/11/24 17:01:11;;;;;;;7.88;2.90;;;;;;;7.10;83.03;97998.06;6157903;23;20017;-66
2022/11/24 17:03:36;;;;;;;6.57;2.85;;;;;;;7.09;83.57;98000.75;6183822;23;20518;-65
2022/11/24 17:06:02;;;;;;;8.05;2.92;;;;;;;7.07;83.55;97997.41;6157619;23;20008;-66
2022/11/24 17:08:32;;;;;;;6.72;3.10;;;;;;;7.04;83.81;98005.38;6133103;23;20336;-65
2022/11/24 17:11:03;;;;;;;7.10;2.55;;;;;;;7.03;84.08;98004.56;6157594;23;20005;-66
2022/11/24 17:13:30;;;;;;;6.68;3.10;;;;;;;7.03;83.09;98004.56;6182786;23;20001;-65
2022/11/24 17:15:55;;;;;;;7.40;2.40;;;;;;;7.04;83.98;98010.59;6157835;23;20499;-65
2022/11/24 17:18:20;;;;;;;8.73;2.83;;;;;;;7.03;83.62;98008.94;6183532;23;20005;-65
2022/11/24 17:20:46;;;;;;;7.07;2.30;;;;;;;7.05;83.99;98010.50;6183626;23;20005;-65
2022/11/24 17:23:11;;;;;;;6.28;2.25;;;;;;;7.06;84.47;98013.97;6183358;23;20005;-65
2022/11/24 17:25:37;;;;;;;7.15;2.80;;;;;;;7.07;84.19;98010.44;6183209;23;20005;-65
2022/11/24 17:28:02;;;;;;;7.18;2.90;;;;;;;7.07;84.14;98007.81;6183506;23;20011;-66
2022/11/24 17:30:27;;;;;;;10.82;3.80;;;;;;;7.06;83.69;98003.53;6183545;23;20051;-66
2022/11/24 17:32:53;;;;;;;15.68;6.93;;;;;;;7.07;83.17;98013.03;6157257;23;20013;-68
2022/11/24 17:35:18;;;;;;;17.23;7.25;;;;;;;7.03;83.30;98009.78;6183250;23;20370;-66
2022/11/24 17:37:43;;;;;;;9.13;3.30;;;;;;;7.26;91.43;98012.81;6183587;23;20005;-66
2022/11/24 17:40:09;;;;;;;15.85;6.85;;;;;;;7.25;87.06;98025.00;6183468;23;20031;-66
2022/11/24 17:42:35;;;;;;;12.98;7.65;;;;;;;7.18;85.48;98017.63;6183559;23;20032;-66
2022/11/24 17:45:01;;;;;;;16.10;7.75;;;;;;;7.09;84.63;98024.25;6155697;23;20005;-66
2022/11/24 17:47:29;;;;;;;13.80;7.07;;;;;;;7.04;83.80;98021.88;6182896;23;20054;-64
2022/11/24 17:49:54;;;;;;;15.25;8.85;;;;;;;6.99;83.80;98018.69;6156746;23;20083;-65
2022/11/24 17:52:20;;;;;;;14.00;8.10;;;;;;;6.93;83.74;98028.63;6183840;23;19997;-64
2022/11/24 17:54:45;;;;;;;14.68;8.07;;;;;;;6.83;83.71;98028.31;6183144;23;20004;-66
2022/11/24 17:57:11;;;;;;;15.00;8.55;;;;;;;6.82;84.12;98032.69;6159066;23;20009;-65
2022/11/24 17:59:36;;;;;;;12.00;7.22;;;;;;;6.78;84.22;98035.53;6185548;23;20303;-66
2022/11/24 18:02:01;;;;;;;12.57;6.97;;;;;;;6.71;84.25;98029.84;6183911;23;20001;-65
2022/11/24 18:04:27;;;;;;;12.88;7.38;;;;;;;6.69;84.33;98031.69;6158449;23;20009;-65
2022/11/24 18:06:52;;;;;;;13.30;7.10;;;;;;;6.63;84.42;98037.22;6185247;23;20005;-65